Time;durP1;ratioP1;P1;durP2;ratioP2;P2;SDS_P1;SDS_P2;PMS_P1;PMS_P2;Temp;Humidity;BMP_temperature;BMP_pressure;BME280_temperature;BME280_humidity;BME280_pressure;Samples;Min_cycle;Max_cycle;Signal;HPM_P1;HPM_P2
2022/09/14 00:00:06;;;;;;;5.13;4.73;;;;;;;22.27;71.20;98549.84;4980095;28;20729;-79
2022/09/14 00:02:35;;;;;;;11.80;5.13;;;;;;;22.20;71.64;98543.66;4978897;28;20430;-78
2022/09/14 00:05:00;;;;;;;5.30;4.43;;;;;;;22.09;72.77;98525.47;4979378;28;20455;-78
2022/09/14 00:07:25;;;;;;;4.97;4.03;;;;;;;22.03;73.00;98540.44;4979075;28;20207;-78
2022/09/14 00:09:51;;;;;;;13.43;5.60;;;;;;;22.00;73.19;98534.66;4978925;28;20196;-80
2022/09/14 00:12:17;;;;;;;5.43;4.53;;;;;;;21.98;73.31;98544.72;4979959;28;20270;-80
2022/09/14 00:14:42;;;;;;;4.93;4.20;;;;;;;21.99;73.28;98541.06;4979140;28;20199;-78
2022/09/14 00:17:07;;;;;;;12.77;4.30;;;;;;;22.02;73.26;98544.16;4980626;28;20931;-78
2022/09/14 00:19:33;;;;;;;5.00;4.17;;;;;;;22.07;73.30;98554.25;4976883;28;20187;-78
2022/09/14 00:21:59;;;;;;;22.80;6.73;;;;;;;22.09;73.38;98568.28;4978857;28;20227;-79
2022/09/14 00:24:26;;;;;;;6.83;4.80;;;;;;;22.08;73.33;98571.94;4978818;28;20185;-78
2022/09/14 00:26:51;;;;;;;6.97;4.53;;;;;;;22.00;73.92;98575.59;4979264;28;20485;-78
2022/09/14 00:29:17;;;;;;;5.23;4.30;;;;;;;21.88;74.24;98585.19;4979193;28;20808;-80
2022/09/14 00:31:44;;;;;;;5.83;4.50;;;;;;;21.79;74.54;98584.53;4978827;28;20218;-79
2022/09/14 00:34:12;;;;;;;5.13;4.00;;;;;;;21.72;74.65;98577.47;4978639;28;20196;-80
2022/09/14 00:36:45;;;;;;;4.80;4.33;;;;;;;21.66;74.80;98579.09;4981309;28;20518;-79
2022/09/14 00:39:11;;;;;;;6.67;5.27;;;;;;;21.66;74.86;98579.09;4977305;28;20510;-79
2022/09/14 00:41:39;;;;;;;9.10;4.63;;;;;;;21.70;74.73;98574.16;4979706;28;20451;-79
2022/09/14 00:44:10;;;;;;;5.70;5.20;;;;;;;21.73;74.72;98571.94;4978748;28;21232;-79
2022/09/14 00:46:37;;;;;;;6.83;5.80;;;;;;;21.74;74.79;98567.41;4979845;28;20607;-78
2022/09/14 00:49:11;;;;;;;6.33;5.73;;;;;;;21.74;75.00;98575.41;4977996;28;20516;-80
2022/09/14 00:51:40;;;;;;;7.33;5.27;;;;;;;21.72;75.09;98577.47;4980021;28;20464;-78
2022/09/14 00:54:06;;;;;;;5.83;5.33;;;;;;;21.69;74.92;98576.03;4979037;28;20559;-79
2022/09/14 00:56:32;;;;;;;12.17;5.47;;;;;;;21.71;75.22;98570.47;4979203;28;20553;-80
2022/09/14 00:59:01;;;;;;;5.77;4.93;;;;;;;21.71;74.95;98570.47;4978232;28;20898;-78
2022/09/14 01:01:27;;;;;;;6.83;4.77;;;;;;;21.72;75.22;98566.78;4979867;28;20216;-78
2022/09/14 01:03:52;;;;;;;5.40;4.90;;;;;;;21.73;74.94;98555.06;4978467;28;20970;-79
2022/09/14 01:06:22;;;;;;;5.93;4.90;;;;;;;21.71;75.12;98555.28;4978821;28;20480;-78
2022/09/14 01:09:03;;;;;;;8.40;5.57;;;;;;;21.65;75.16;98556.84;4976987;28;20313;-79
2022/09/14 01:12:02;;;;;;;11.60;5.10;;;;;;;21.60;75.60;98559.31;4983838;28;20918;-80
2022/09/14 01:14:41;;;;;;;9.30;6.10;;;;;;;21.61;75.64;98560.13;4970825;28;21057;-77
2022/09/14 01:17:11;;;;;;;6.67;5.23;;;;;;;21.63;75.43;98556.25;4983025;28;20481;-78
2022/09/14 01:20:18;;;;;;;9.10;5.07;;;;;;;21.61;75.67;98550.25;4982549;28;20512;-78
2022/09/14 01:22:51;;;;;;;8.20;5.53;;;;;;;21.61;75.63;98554.78;4889031;29;20822;-78
2022/09/14 01:25:56;;;;;;;6.30;5.70;;;;;;;21.60;75.61;98555.78;4970121;28;20540;-78
2022/09/14 01:28:27;;;;;;;7.07;5.10;;;;;;;21.56;75.95;98557.22;4981729;28;20813;-78
2022/09/14 01:30:57;;;;;;;7.13;4.40;;;;;;;21.53;75.79;98549.59;4966574;28;20441;-78
2022/09/14 01:33:32;;;;;;;5.70;4.60;;;;;;;21.52;76.00;98553.25;4982389;28;20990;-79
2022/09/14 01:36:01;;;;;;;4.90;4.40;;;;;;;21.51;75.83;98554.28;4982226;28;21171;-79
2022/09/14 01:38:33;;;;;;;5.17;4.77;;;;;;;21.53;76.13;98552.25;4981260;28;20416;-78
2022/09/14 01:41:03;;;;;;;8.00;5.03;;;;;;;21.57;75.87;98548.16;4982311;28;20455;-78
2022/09/14 01:43:33;;;;;;;6.63;4.93;;;;;;;21.58;75.79;98545.31;4983515;28;20463;-80
2022/09/14 01:46:07;;;;;;;6.40;5.80;;;;;;;21.56;75.75;98535.84;4981124;28;20448;-78
2022/09/14 01:48:41;;;;;;;6.17;5.30;;;;;;;21.53;76.07;98538.91;4982101;28;20448;-79
2022/09/14 01:51:15;;;;;;;5.83;5.33;;;;;;;21.55;76.19;98543.03;4982622;28;20474;-79
2022/09/14 01:53:48;;;;;;;4.83;4.43;;;;;;;21.57;75.92;98538.28;4983144;28;20418;-78
2022/09/14 01:56:31;;;;;;;5.57;4.57;;;;;;;21.58;75.97;98537.28;4982034;28;21658;-80
2022/09/14 01:59:29;;;;;;;6.17;4.90;;;;;;;21.60;75.95;98537.94;4963102;28;21062;-80
2022/09/14 02:01:58;;;;;;;7.80;5.03;;;;;;;21.63;75.84;98531.38;4970886;28;20684;-78
2022/09/14 02:04:41;;;;;;;10.93;4.83;;;;;;;21.61;75.69;98528.88;4981977;28;20473;-78
2022/09/14 02:07:07;;;;;;;6.37;4.97;;;;;;;21.57;76.00;98521.44;4981493;28;20534;-79
2022/09/14 02:09:32;;;;;;;7.47;6.70;;;;;;;21.52;76.03;98526.53;4980790;28;20866;-77
2022/09/14 02:11:59;;;;;;;7.03;5.00;;;;;;;21.53;76.09;98521.03;4982452;28;20733;-79
2022/09/14 02:14:26;;;;;;;6.20;5.10;;;;;;;21.54;76.07;98530.69;4981852;28;20210;-81
2022/09/14 02:16:51;;;;;;;5.23;4.73;;;;;;;21.57;75.87;98526.78;4981774;28;20490;-78
2022/09/14 02:19:18;;;;;;;7.40;5.20;;;;;;;21.58;76.09;98531.94;4980800;28;20451;-78
2022/09/14 02:21:43;;;;;;;5.53;5.00;;;;;;;21.59;76.08;98535.44;4982602;28;20221;-78
2022/09/14 02:24:09;;;;;;;7.90;5.30;;;;;;;21.59;76.11;98522.09;4981782;28;20455;-78
2022/09/14 02:26:36;;;;;;;5.00;4.43;;;;;;;21.58;76.33;98526.59;4980586;28;20792;-78
2022/09/14 02:29:02;;;;;;;7.33;6.57;;;;;;;21.58;76.21;98539.97;4979752;28;20484;-77
2022/09/14 02:31:45;;;;;;;6.20;5.30;;;;;;;21.56;76.46;98541.19;4981576;28;20458;-79
2022/09/14 02:34:38;;;;;;;5.60;5.03;;;;;;;21.50;76.81;98541.97;4982326;28;20210;-78
2022/09/14 02:37:17;;;;;;;5.63;5.13;;;;;;;21.48;76.90;98525.28;4981859;28;20481;-80
2022/09/14 02:39:51;;;;;;;5.47;4.70;;;;;;;21.49;76.88;98522.41;4980478;28;21248;-77
2022/09/14 02:42:43;;;;;;;5.63;5.13;;;;;;;21.51;76.81;98520.38;4979893;28;20486;-77
2022/09/14 02:45:31;;;;;;;5.83;4.93;;;;;;;21.52;76.86;98529.22;4944573;28;20532;-78
2022/09/14 02:48:05;;;;;;;7.37;6.67;;;;;;;21.53;76.45;98528.22;4981092;28;20457;-77
2022/09/14 02:50:53;;;;;;;6.03;5.40;;;;;;;21.51;76.58;98527.56;4980649;28;20844;-79
2022/09/14 02:53:28;;;;;;;9.70;5.23;;;;;;;21.52;76.55;98526.53;4980456;28;20468;-80
2022/09/14 02:56:01;;;;;;;9.90;5.97;;;;;;;21.52;76.83;98546.09;4973711;28;20469;-77
2022/09/14 02:58:40;;;;;;;5.43;4.93;;;;;;;21.54;76.80;98548.56;4980087;28;20501;-77
2022/09/14 03:01:08;;;;;;;5.67;5.27;;;;;;;21.51;77.05;98544.44;4982212;28;20446;-80
2022/09/14 03:03:33;;;;;;;6.50;5.90;;;;;;;21.52;77.12;98539.91;4980406;28;20621;-78
2022/09/14 03:05:58;;;;;;;10.47;6.10;;;;;;;21.53;76.88;98541.56;4981756;28;20442;-79
2022/09/14 03:08:25;;;;;;;6.90;5.57;;;;;;;21.55;76.70;98526.16;4979149;28;21152;-78
2022/09/14 03:10:51;;;;;;;9.10;5.80;;;;;;;21.55;76.71;98532.34;4981609;28;20226;-78
2022/09/14 03:13:16;;;;;;;6.73;6.07;;;;;;;21.55;76.83;98524.31;4980424;28;20840;-78
2022/09/14 03:15:42;;;;;;;6.87;6.27;;;;;;;21.51;76.92;98512.38;4981941;28;20202;-78
2022/09/14 03:18:08;;;;;;;8.80;6.60;;;;;;;21.47;77.13;98510.25;4980404;28;20572;-79
2022/09/14 03:20:34;;;;;;;7.70;5.70;;;;;;;21.43;76.97;98507.16;4980260;28;20215;-81
2022/09/14 03:23:00;;;;;;;6.87;6.20;;;;;;;21.42;77.15;98509.03;4981145;28;20446;-78
2022/09/14 03:25:26;;;;;;;7.50;6.17;;;;;;;21.41;77.29;98526.06;4980726;28;20991;-78
2022/09/14 03:27:55;;;;;;;7.33;5.60;;;;;;;21.41;77.31;98528.75;4979060;28;20540;-78
2022/09/14 03:30:21;;;;;;;6.53;4.97;;;;;;;21.42;77.29;98525.03;4979971;28;20510;-79
2022/09/14 03:32:47;;;;;;;6.87;5.63;;;;;;;21.42;77.23;98518.88;4980297;28;20450;-79
2022/09/14 03:35:13;;;;;;;6.87;4.93;;;;;;;21.44;77.46;98516.81;4961882;28;20989;-79
2022/09/14 03:37:40;;;;;;;5.53;4.33;;;;;;;21.45;77.22;98515.81;4980314;28;20194;-78
2022/09/14 03:40:07;;;;;;;5.83;4.50;;;;;;;21.46;77.21;98500.63;4976657;28;20423;-79
2022/09/14 03:42:33;;;;;;;4.97;4.10;;;;;;;21.47;77.40;98494.22;4978340;28;20887;-78
2022/09/14 03:44:58;;;;;;;6.83;4.80;;;;;;;21.46;77.65;98500.63;4979714;28;20970;-78
2022/09/14 03:47:24;;;;;;;5.27;4.77;;;;;;;21.47;77.61;98497.75;4981220;28;20566;-78
2022/09/14 03:49:49;;;;;;;4.50;4.10;;;;;;;21.47;77.65;98503.09;4980116;28;20200;-79
2022/09/14 03:52:15;;;;;;;4.50;4.10;;;;;;;21.48;77.53;98483.38;4981086;28;20431;-79
2022/09/14 03:54:41;;;;;;;6.07;4.40;;;;;;;21.49;77.52;98490.34;4962839;28;20191;-80
2022/09/14 03:57:06;;;;;;;3.80;3.40;;;;;;;21.51;77.46;98501.69;4979876;28;20454;-78
2022/09/14 03:59:32;;;;;;;5.77;3.60;;;;;;;21.50;77.71;98485.84;4975374;28;20244;-78
2022/09/14 04:01:59;;;;;;;5.63;4.10;;;;;;;21.50;77.39;98478.66;4978455;28;20221;-78
2022/09/14 04:04:24;;;;;;;3.97;3.67;;;;;;;21.51;77.35;98484.81;4974724;28;20466;-78
2022/09/14 04:06:50;;;;;;;4.67;4.27;;;;;;;21.52;77.33;98470.44;4992160;28;20488;-78
2022/09/14 04:09:17;;;;;;;4.03;3.57;;;;;;;21.54;77.49;98468.41;4977624;28;20420;-79
2022/09/14 04:11:43;;;;;;;5.17;4.60;;;;;;;21.54;76.93;98474.56;4981217;28;20217;-80
2022/09/14 04:14:09;;;;;;;7.43;4.17;;;;;;;21.55;77.14;98473.56;4979671;28;20547;-79
2022/09/14 04:16:34;;;;;;;5.33;4.53;;;;;;;21.54;77.05;98473.75;4978866;28;20524;-78
2022/09/14 04:19:00;;;;;;;4.70;3.60;;;;;;;21.46;77.27;98484.59;4979729;28;20279;-78
2022/09/14 04:21:25;;;;;;;6.57;4.03;;;;;;;21.41;77.44;98488.69;4977559;28;20215;-78
2022/09/14 04:23:53;;;;;;;4.73;4.17;;;;;;;21.38;77.64;98486.38;4980306;28;20209;-78
2022/09/14 04:26:20;;;;;;;6.87;4.30;;;;;;;21.37;77.68;98478.53;4979189;28;20202;-78
2022/09/14 04:28:45;;;;;;;11.70;4.83;;;;;;;21.36;77.82;98472.38;4979770;28;20461;-78
2022/09/14 04:31:12;;;;;;;5.77;5.23;;;;;;;21.36;77.57;98476.88;4979629;28;20455;-79
2022/09/14 04:33:41;;;;;;;4.20;3.90;;;;;;;21.35;77.87;98464.53;4979492;28;20699;-79
2022/09/14 04:36:16;;;;;;;4.47;3.80;;;;;;;21.32;78.12;98479.09;4979245;28;20460;-79
2022/09/14 04:38:43;;;;;;;6.47;4.40;;;;;;;21.29;78.05;98484.03;4978002;28;20428;-79
2022/09/14 04:41:12;;;;;;;4.40;3.90;;;;;;;21.26;78.17;98489.75;4979625;28;20568;-79
2022/09/14 04:43:39;;;;;;;8.43;4.17;;;;;;;21.24;78.37;98489.13;4979873;28;20449;-79
2022/09/14 04:46:14;;;;;;;5.13;4.63;;;;;;;21.21;78.20;98496.50;4978765;28;20466;-79
2022/09/14 04:48:39;;;;;;;6.20;4.57;;;;;;;21.16;78.53;98487.41;4979216;28;20454;-78
2022/09/14 04:51:12;;;;;;;5.50;4.93;;;;;;;21.12;78.44;98491.50;4979612;28;20451;-79
2022/09/14 04:53:38;;;;;;;6.57;4.63;;;;;;;21.08;78.75;98488.38;4980228;28;20202;-80
2022/09/14 04:56:09;;;;;;;6.10;5.50;;;;;;;21.06;78.61;98487.72;4979015;28;20809;-78
2022/09/14 04:58:39;;;;;;;9.40;4.73;;;;;;;21.07;78.67;98488.56;4979187;28;20477;-80
2022/09/14 05:01:17;;;;;;;6.27;4.63;;;;;;;21.05;78.78;98485.25;4978074;28;20449;-80
2022/09/14 05:03:43;;;;;;;5.87;5.03;;;;;;;21.04;78.77;98491.63;4978942;28;21049;-81
2022/09/14 05:06:11;;;;;;;11.17;4.97;;;;;;;21.04;78.79;98488.97;4980047;28;20439;-81
2022/09/14 05:08:37;;;;;;;5.20;4.20;;;;;;;21.03;78.53;98487.28;4977961;28;20790;-79
2022/09/14 05:11:04;;;;;;;5.47;4.97;;;;;;;21.03;78.53;98497.97;4977600;28;20655;-79
2022/09/14 05:13:31;;;;;;;5.60;4.50;;;;;;;21.01;78.59;98492.84;4979691;28;20426;-79
2022/09/14 05:16:22;;;;;;;7.30;5.17;;;;;;;21.00;78.69;98492.00;4978353;28;20448;-78
2022/09/14 05:18:49;;;;;;;8.70;6.80;;;;;;;21.00;78.45;98504.53;4975455;28;20897;-81
2022/09/14 05:21:19;;;;;;;4.63;4.20;;;;;;;20.97;78.70;98510.25;4971462;28;20502;-78
2022/09/14 05:23:45;;;;;;;5.67;4.60;;;;;;;20.94;78.61;98513.31;4974195;28;20446;-80
2022/09/14 05:26:11;;;;;;;5.27;4.23;;;;;;;20.94;78.58;98510.63;4974213;28;20480;-81
2022/09/14 05:28:37;;;;;;;5.73;5.13;;;;;;;20.94;78.42;98513.31;4972293;28;20534;-78
2022/09/14 05:31:05;;;;;;;5.60;5.10;;;;;;;20.95;78.42;98514.94;4973263;28;20506;-81
2022/09/14 05:33:31;;;;;;;5.60;4.90;;;;;;;20.95;78.40;98513.13;4974274;28;20512;-78
2022/09/14 05:36:01;;;;;;;5.83;5.33;;;;;;;20.96;78.31;98519.28;4973020;28;20449;-78
2022/09/14 05:38:31;;;;;;;6.10;5.60;;;;;;;20.98;78.34;98518.06;4972621;28;20572;-79
2022/09/14 05:40:57;;;;;;;5.40;4.90;;;;;;;21.01;78.26;98522.22;4973761;28;20793;-78
2022/09/14 05:43:23;;;;;;;6.77;5.57;;;;;;;21.03;78.11;98506.81;4972844;28;20531;-79
2022/09/14 05:45:48;;;;;;;5.73;5.17;;;;;;;21.05;78.25;98511.97;4970856;28;20623;-80
2022/09/14 05:48:14;;;;;;;6.27;5.47;;;;;;;21.08;78.34;98506.22;4974495;28;20472;-79
2022/09/14 05:50:40;;;;;;;8.93;5.60;;;;;;;21.09;78.10;98487.38;4968468;28;20218;-81
2022/09/14 05:53:05;;;;;;;6.27;5.67;;;;;;;21.12;78.34;98499.50;4973401;28;20458;-81
2022/09/14 05:55:31;;;;;;;7.37;6.73;;;;;;;21.14;78.05;98494.78;4967991;28;20221;-79
2022/09/14 05:57:56;;;;;;;12.33;6.30;;;;;;;21.16;78.00;98498.09;4968795;28;20437;-81
2022/09/14 06:00:22;;;;;;;10.17;5.27;;;;;;;21.19;78.27;98492.34;4973112;28;20189;-80
2022/09/14 06:02:49;;;;;;;7.50;6.80;;;;;;;21.21;78.14;98491.16;4978722;28;20426;-78
2022/09/14 06:05:15;;;;;;;6.77;6.10;;;;;;;21.25;78.15;98483.56;4975796;28;20197;-80
2022/09/14 06:07:40;;;;;;;6.60;5.93;;;;;;;21.30;78.07;98483.00;4976752;28;20455;-78
2022/09/14 06:10:06;;;;;;;5.97;5.47;;;;;;;21.33;78.01;98479.94;4975813;28;20949;-80
2022/09/14 06:12:32;;;;;;;8.47;6.60;;;;;;;21.36;78.00;98477.72;4975627;28;20762;-81
2022/09/14 06:14:57;;;;;;;6.93;5.33;;;;;;;21.39;77.87;98480.03;4975235;28;20449;-80
2022/09/14 06:17:23;;;;;;;7.63;5.80;;;;;;;21.41;77.92;98478.00;4977201;28;20861;-81
2022/09/14 06:19:48;;;;;;;5.30;4.80;;;;;;;21.46;77.86;98484.59;4976782;28;20508;-79
2022/09/14 06:22:13;;;;;;;5.83;5.33;;;;;;;21.45;77.64;98467.72;4974359;28;20683;-82
2022/09/14 06:24:39;;;;;;;8.53;5.27;;;;;;;21.48;77.29;98474.53;4976949;28;20193;-79
2022/09/14 06:27:07;;;;;;;5.73;5.10;;;;;;;21.50;77.42;98478.66;4977421;28;20191;-78
2022/09/14 06:29:33;;;;;;;5.43;4.90;;;;;;;21.54;77.15;98481.75;4976279;28;20219;-82
2022/09/14 06:31:59;;;;;;;6.73;5.20;;;;;;;21.58;77.05;98475.00;4978178;28;20438;-82
2022/09/14 06:34:24;;;;;;;7.03;5.90;;;;;;;21.62;77.00;98479.75;4976106;28;20426;-82
2022/09/14 06:36:49;;;;;;;7.80;5.40;;;;;;;21.66;76.93;98474.88;4975739;28;20300;-81
2022/09/14 06:39:15;;;;;;;5.77;5.17;;;;;;;21.71;76.89;98480.44;4976050;28;20602;-79
2022/09/14 06:41:40;;;;;;;6.73;5.50;;;;;;;21.78;77.04;98488.50;4977447;28;20241;-83
2022/09/14 06:44:17;;;;;;;7.93;5.80;;;;;;;21.86;76.54;98497.16;4974675;28;20304;-81
2022/09/14 06:46:46;;;;;;;7.23;4.70;;;;;;;21.95;76.62;98502.34;4975259;28;20512;-80
2022/09/14 06:49:19;;;;;;;6.03;5.27;;;;;;;22.03;76.17;98502.19;4977322;28;20492;-79
2022/09/14 06:51:46;;;;;;;5.70;5.20;;;;;;;22.11;75.88;98507.38;4977770;28;20880;-82
2022/09/14 06:54:14;;;;;;;5.80;5.07;;;;;;;22.18;75.99;98507.41;4977362;28;20418;-80
2022/09/14 06:56:40;;;;;;;5.37;4.40;;;;;;;22.21;75.77;98505.19;4972102;28;20425;-79
2022/09/14 06:59:07;;;;;;;8.43;5.87;;;;;;;22.29;75.69;98502.34;4976155;28;20425;-81
2022/09/14 07:01:33;;;;;;;5.70;5.30;;;;;;;22.42;75.42;98511.44;4977274;28;20816;-79
2022/09/14 07:04:00;;;;;;;7.03;5.47;;;;;;;22.50;75.05;98514.75;4975300;28;20426;-81
2022/09/14 07:06:29;;;;;;;5.10;4.60;;;;;;;22.61;74.55;98508.00;4975283;28;21217;-81
2022/09/14 07:08:54;;;;;;;6.80;5.30;;;;;;;22.76;74.41;98513.16;4975275;28;20542;-78
2022/09/14 07:11:26;;;;;;;5.60;4.60;;;;;;;22.87;74.13;98523.31;4976769;28;20434;-80
2022/09/14 07:14:00;;;;;;;5.27;4.67;;;;;;;23.02;73.52;98511.59;4974964;28;20454;-82
2022/09/14 07:16:27;;;;;;;7.07;5.10;;;;;;;23.10;73.63;98506.88;4974993;28;20413;-78
2022/09/14 07:18:54;;;;;;;6.03;5.43;;;;;;;23.17;73.17;98510.38;4975883;28;20459;-78
2022/09/14 07:21:20;;;;;;;6.60;4.80;;;;;;;23.23;73.44;98522.13;4976460;28;20976;-81
2022/09/14 07:23:47;;;;;;;7.47;5.20;;;;;;;23.30;73.44;98508.72;4976594;28;20473;-81
2022/09/14 07:26:19;;;;;;;7.50;5.20;;;;;;;23.35;73.25;98512.44;4973659;28;20554;-80
2022/09/14 07:28:47;;;;;;;6.53;5.53;;;;;;;23.45;73.06;98511.22;4973883;28;21030;-79
2022/09/14 07:31:21;;;;;;;6.70;5.27;;;;;;;23.61;72.65;98508.91;4974061;28;20787;-83
2022/09/14 07:33:50;;;;;;;7.40;5.47;;;;;;;23.78;72.11;98516.53;4976725;28;20411;-81
2022/09/14 07:36:15;;;;;;;5.87;4.90;;;;;;;23.96;71.78;98522.06;4973858;28;20415;-81
2022/09/14 07:38:41;;;;;;;6.07;4.80;;;;;;;24.13;71.15;98524.31;4976569;28;20935;-81
2022/09/14 07:41:07;;;;;;;6.57;4.20;;;;;;;24.23;70.67;98522.81;4977115;28;20312;-78
2022/09/14 07:43:33;;;;;;;4.30;3.90;;;;;;;24.37;70.23;98533.50;4994449;23;20503;-73
2022/09/14 07:46:03;;;;;;;8.23;4.57;;;;;;;24.48;69.92;98543.59;4977815;28;20461;-73
2022/09/14 07:48:29;;;;;;;4.53;4.13;;;;;;;24.62;69.34;98542.50;4993094;28;21304;-73
2022/09/14 07:51:03;;;;;;;7.77;4.33;;;;;;;24.80;68.79;98543.66;4993990;28;20505;-74
2022/09/14 07:53:29;;;;;;;6.00;4.50;;;;;;;24.93;68.53;98554.31;4993486;28;20487;-74
2022/09/14 07:55:58;;;;;;;5.67;5.03;;;;;;;25.03;68.47;98549.28;4992871;28;20450;-73
2022/09/14 07:58:24;;;;;;;6.13;4.23;;;;;;;25.13;67.89;98554.19;4994210;28;20440;-74
2022/09/14 08:00:49;;;;;;;13.37;5.67;;;;;;;25.21;67.40;98545.88;4992478;28;20442;-74
2022/09/14 08:03:15;;;;;;;4.03;3.63;;;;;;;25.31;66.69;98535.47;4995155;28;20285;-73
2022/09/14 08:05:41;;;;;;;3.63;3.33;;;;;;;25.46;65.98;98539.69;4991966;28;20705;-73
2022/09/14 08:08:06;;;;;;;3.47;3.20;;;;;;;25.93;63.75;98537.44;4990624;28;20215;-73
2022/09/14 08:10:34;;;;;;;3.50;2.63;;;;;;;26.48;61.84;98554.38;4994352;28;20297;-74
2022/09/14 08:12:59;;;;;;;4.20;2.83;;;;;;;26.75;60.83;98561.34;4995092;28;20473;-74
2022/09/14 08:15:26;;;;;;;3.33;3.07;;;;;;;26.90;59.48;98567.13;4993181;28;20445;-74
2022/09/14 08:17:51;;;;;;;5.83;3.10;;;;;;;27.21;57.81;98570.66;4993076;28;20198;-74
2022/09/14 08:20:16;;;;;;;2.70;2.50;;;;;;;27.64;56.38;98586.56;4995507;28;20424;-74
2022/09/14 08:22:43;;;;;;;4.43;3.30;;;;;;;27.99;55.17;98564.19;4994531;28;20216;-74
2022/09/14 08:25:09;;;;;;;4.77;2.60;;;;;;;28.43;53.75;98549.19;4991600;28;20203;-73
2022/09/14 08:27:35;;;;;;;3.10;2.40;;;;;;;28.95;51.89;98537.50;4994076;28;20460;-73
2022/09/14 08:30:00;;;;;;;3.27;2.83;;;;;;;28.95;51.29;98545.63;4994906;28;20445;-74
2022/09/14 08:32:26;;;;;;;6.33;2.70;;;;;;;28.70;51.58;98537.84;4995328;28;20219;-73
2022/09/14 08:34:51;;;;;;;4.53;2.87;;;;;;;28.34;52.37;98542.50;4994185;28;20191;-73
2022/09/14 08:37:17;;;;;;;5.53;3.00;;;;;;;28.17;52.86;98541.63;4990273;28;20190;-74
2022/09/14 08:39:42;;;;;;;3.70;2.60;;;;;;;28.06;53.00;98555.94;4993893;28;20560;-74
2022/09/14 08:42:14;;;;;;;3.40;2.17;;;;;;;27.89;53.61;98550.44;4994144;28;21308;-74
2022/09/14 08:44:48;;;;;;;3.20;2.87;;;;;;;27.76;53.65;98551.47;4991837;28;20191;-74
2022/09/14 08:47:18;;;;;;;5.70;2.83;;;;;;;27.75;53.67;98549.84;4993128;28;20553;-74
2022/09/14 08:49:53;;;;;;;4.13;2.80;;;;;;;27.87;53.19;98541.75;4995304;28;20469;-73
2022/09/14 08:52:23;;;;;;;2.87;2.10;;;;;;;28.03;52.53;98535.66;4994171;28;20564;-73
2022/09/14 08:54:52;;;;;;;3.13;2.60;;;;;;;27.95;52.59;98534.16;4993966;28;20473;-74
2022/09/14 08:57:33;;;;;;;4.70;3.40;;;;;;;28.12;52.60;98534.22;4991717;28;20453;-74
2022/09/14 09:00:03;;;;;;;3.80;3.03;;;;;;;28.55;51.36;98521.34;4993406;28;21491;-74
2022/09/14 09:02:41;;;;;;;4.60;2.80;;;;;;;28.66;51.02;98521.28;4991894;28;20819;-73
2022/09/14 09:05:27;;;;;;;4.17;2.40;;;;;;;28.52;51.15;98527.25;4993880;28;20525;-74
2022/09/14 09:08:29;;;;;;;2.80;2.60;;;;;;;28.19;51.61;98534.94;4991890;28;20533;-73
2022/09/14 09:10:58;;;;;;;6.87;4.17;;;;;;;27.94;52.49;98531.69;4993545;28;20833;-74
2022/09/14 09:13:29;;;;;;;3.60;2.90;;;;;;;27.73;52.84;98542.00;4993161;28;20466;-74
2022/09/14 09:16:01;;;;;;;7.43;2.93;;;;;;;27.55;53.11;98531.31;4992633;28;20648;-73
2022/09/14 09:18:58;;;;;;;4.70;2.50;;;;;;;27.36;53.23;98522.50;4990642;28;20644;-74
2022/09/14 09:21:37;;;;;;;5.90;3.20;;;;;;;27.20;53.86;98518.63;4993916;28;20599;-73
2022/09/14 09:24:36;;;;;;;5.20;2.47;;;;;;;27.10;54.18;98516.44;4993973;28;20772;-73
2022/09/14 09:27:08;;;;;;;3.30;3.00;;;;;;;27.05;53.88;98508.22;4992494;28;20556;-73
2022/09/14 09:29:34;;;;;;;2.80;2.60;;;;;;;27.06;54.06;98511.75;4993712;28;21121;-73
2022/09/14 09:32:19;;;;;;;3.30;3.03;;;;;;;27.06;53.89;98501.81;4992915;28;20496;-74
2022/09/14 09:34:44;;;;;;;4.27;3.50;;;;;;;27.01;53.81;98501.66;4974522;28;20666;-74
2022/09/14 09:37:24;;;;;;;4.67;2.50;;;;;;;26.91;54.31;98496.00;4975830;28;20438;-74
2022/09/14 09:39:50;;;;;;;5.07;3.17;;;;;;;26.86;54.35;98487.81;4978674;28;20472;-73
2022/09/14 09:42:24;;;;;;;4.77;3.50;;;;;;;26.83;54.28;98485.56;4998053;28;20504;-74
2022/09/14 09:44:59;;;;;;;4.10;3.33;;;;;;;26.83;54.72;98485.56;4994970;28;20206;-74
2022/09/14 09:47:36;;;;;;;2.83;2.60;;;;;;;26.84;54.54;98489.91;4996619;28;20500;-74
2022/09/14 09:50:17;;;;;;;6.60;3.33;;;;;;;26.90;54.41;98486.31;4995031;28;20473;-73
2022/09/14 09:52:51;;;;;;;2.93;2.50;;;;;;;26.98;54.26;98479.72;4996944;28;20482;-74
2022/09/14 09:55:21;;;;;;;4.20;2.53;;;;;;;27.03;54.08;98483.41;4996016;28;20482;-73
2022/09/14 09:57:47;;;;;;;6.20;2.70;;;;;;;27.13;53.81;98475.53;4997531;28;20460;-73
2022/09/14 10:00:13;;;;;;;3.83;2.30;;;;;;;27.27;53.54;98464.56;4995882;28;20438;-74
2022/09/14 10:02:39;;;;;;;3.43;2.50;;;;;;;27.40;52.92;98467.03;4997443;28;21043;-74
2022/09/14 10:05:07;;;;;;;3.43;2.50;;;;;;;27.52;52.48;98464.34;4994653;28;20187;-74
2022/09/14 10:07:36;;;;;;;3.37;2.40;;;;;;;27.55;52.32;98467.41;4995965;28;20803;-73
2022/09/14 10:10:11;;;;;;;3.67;2.47;;;;;;;27.51;51.86;98481.56;4997180;28;20466;-73
2022/09/14 10:12:44;;;;;;;7.10;3.13;;;;;;;27.40;51.92;98472.44;4997068;28;20614;-73
2022/09/14 10:15:24;;;;;;;2.80;2.53;;;;;;;27.25;52.54;98477.50;4996104;28;20852;-73
2022/09/14 10:18:02;;;;;;;3.60;2.33;;;;;;;27.05;52.69;98478.56;4993617;28;20433;-73
2022/09/14 10:20:28;;;;;;;2.83;2.63;;;;;;;26.83;53.36;98483.69;4997242;28;20421;-73
2022/09/14 10:22:53;;;;;;;3.17;2.67;;;;;;;26.65;54.22;98492.66;4996157;28;20468;-73
2022/09/14 10:25:22;;;;;;;8.40;3.13;;;;;;;26.45;54.73;98494.78;4996576;28;20533;-73
2022/09/14 10:27:56;;;;;;;3.77;2.80;;;;;;;26.27;55.21;98501.00;4994380;28;20183;-73
2022/09/14 10:30:42;;;;;;;8.07;3.50;;;;;;;26.07;56.34;98519.28;4994485;28;20440;-74
2022/09/14 10:33:12;;;;;;;9.70;3.10;;;;;;;25.80;57.50;98520.34;4995723;28;20580;-73
2022/09/14 10:35:55;;;;;;;4.83;2.70;;;;;;;25.55;59.14;98514.19;4995561;28;20480;-74
2022/09/14 10:38:51;;;;;;;3.83;3.43;;;;;;;25.27;60.64;98518.13;4993813;28;20437;-74
2022/09/14 10:41:44;;;;;;;10.57;2.53;;;;;;;24.86;62.77;98516.75;4995828;28;20816;-74
2022/09/14 10:44:25;;;;;;;2.93;2.43;;;;;;;24.52;64.55;98520.66;4995873;28;20548;-74
2022/09/14 10:47:14;;;;;;;4.90;3.60;;;;;;;24.29;65.65;98531.88;4995703;28;20961;-74
2022/09/14 10:50:10;;;;;;;5.47;3.50;;;;;;;24.08;67.24;98533.78;4995490;28;20469;-74
2022/09/14 10:53:03;;;;;;;5.57;3.20;;;;;;;23.88;67.96;98532.22;4958839;28;20536;-74
2022/09/14 10:55:54;;;;;;;4.40;3.33;;;;;;;23.67;68.85;98539.44;4976959;28;20796;-75
2022/09/14 10:58:49;;;;;;;4.50;3.10;;;;;;;23.51;69.36;98523.78;4969115;28;20435;-74
2022/09/14 11:01:22;;;;;;;5.80;3.53;;;;;;;23.36;69.88;98534.72;4973738;28;20482;-74
2022/09/14 11:04:12;;;;;;;5.63;2.60;;;;;;;23.24;70.23;98536.34;4987418;28;20431;-75
2022/09/14 11:07:03;;;;;;;7.17;3.37;;;;;;;23.10;70.71;98554.28;4986746;28;20460;-75
2022/09/14 11:09:37;;;;;;;2.80;2.50;;;;;;;22.97;70.71;98555.06;4959471;28;20482;-74
2022/09/14 11:12:17;;;;;;;3.90;2.07;;;;;;;22.79;70.76;98550.28;4976100;28;20783;-75
2022/09/14 11:14:51;;;;;;;6.30;2.90;;;;;;;22.53;70.93;98559.84;4995178;28;20641;-74
2022/09/14 11:17:41;;;;;;;5.17;2.83;;;;;;;22.30;71.61;98560.19;4992250;28;20441;-75
2022/09/14 11:20:37;;;;;;;3.33;2.80;;;;;;;22.16;72.65;98557.59;4994911;28;20435;-74
2022/09/14 11:23:26;;;;;;;13.23;4.50;;;;;;;22.03;73.17;98535.09;4995979;28;20512;-75
2022/09/14 11:26:15;;;;;;;7.00;3.23;;;;;;;22.00;73.10;98532.00;4994525;28;20888;-75
2022/09/14 11:28:47;;;;;;;8.27;3.30;;;;;;;21.98;73.22;98537.56;4995075;28;20443;-75
2022/09/14 11:31:18;;;;;;;4.00;3.10;;;;;;;21.97;74.03;98554.59;4997150;28;20437;-75
2022/09/14 11:33:56;;;;;;;5.83;2.63;;;;;;;22.01;73.80;98555.06;4997184;28;20492;-74
2022/09/14 11:36:35;;;;;;;3.60;2.97;;;;;;;22.05;73.62;98554.44;4996191;28;21060;-74
2022/09/14 11:39:19;;;;;;;5.53;2.80;;;;;;;22.12;73.73;98570.53;4994096;28;20448;-74
2022/09/14 11:42:01;;;;;;;5.00;3.43;;;;;;;22.21;73.47;98566.72;4995445;28;20423;-74
2022/09/14 11:44:38;;;;;;;7.20;3.50;;;;;;;22.29;73.20;98573.75;4992036;28;20493;-73
2022/09/14 11:47:21;;;;;;;4.37;2.80;;;;;;;22.36;73.45;98579.13;4992696;28;20448;-74
2022/09/14 11:50:05;;;;;;;3.27;2.97;;;;;;;22.42;73.38;98583.69;4996371;28;20478;-73
2022/09/14 11:52:32;;;;;;;6.33;3.33;;;;;;;22.46;73.07;98590.28;4992865;28;20423;-74